createdAt,value
2019-04-01T00:02:10.785Z,20.90
2019-04-01T00:04:39.862Z,21.00
2019-04-01T00:07:08.875Z,21.10
2019-04-01T00:09:38.957Z,21.10
2019-04-01T00:12:08.182Z,21.10
2019-04-01T00:14:37.846Z,21.10
2019-04-01T00:17:07.177Z,21.00
2019-04-01T00:19:36.479Z,20.90
2019-04-01T00:22:05.515Z,20.90
2019-04-01T00:24:34.727Z,20.90
2019-04-01T00:27:03.571Z,20.90
2019-04-01T00:29:32.794Z,20.90
2019-04-01T00:32:01.782Z,20.90
2019-04-01T00:34:31.044Z,20.90
2019-04-01T00:37:00.019Z,20.90
2019-04-01T00:39:29.669Z,20.90
2019-04-01T00:42:00.174Z,20.90
2019-04-01T00:44:29.267Z,21.00
2019-04-01T00:46:58.569Z,20.90
2019-04-01T00:49:27.651Z,20.90
2019-04-01T00:51:56.205Z,20.90
2019-04-01T00:54:25.446Z,21.00
2019-04-01T00:56:54.460Z,20.90
2019-04-01T00:59:23.427Z,20.80
2019-04-01T01:01:52.216Z,20.70
2019-04-01T01:04:21.004Z,20.70
2019-04-01T01:06:49.990Z,20.60
2019-04-01T01:09:19.603Z,20.60
2019-04-01T01:11:48.433Z,20.60
2019-04-01T01:14:17.589Z,20.50
2019-04-01T01:16:46.415Z,20.40
2019-04-01T01:19:15.680Z,20.40
2019-04-01T01:21:45.374Z,20.30
2019-04-01T01:24:14.416Z,20.30
2019-04-01T01:26:43.295Z,20.20
2019-04-01T01:29:12.345Z,20.20
2019-04-01T01:31:41.036Z,20.10
2019-04-01T01:34:11.994Z,20.00
2019-04-01T01:36:41.275Z,19.90
2019-04-01T01:39:10.684Z,19.80
2019-04-01T01:41:39.466Z,19.70
2019-04-01T01:44:08.920Z,19.70
2019-04-01T01:46:37.857Z,19.60
2019-04-01T01:49:06.762Z,19.50
2019-04-01T01:51:35.640Z,19.40
2019-04-01T01:54:04.684Z,19.30
2019-04-01T01:56:33.645Z,19.20
2019-04-01T01:59:02.842Z,19.10
2019-04-01T02:01:32.176Z,19.00
2019-04-01T02:04:01.450Z,18.80
2019-04-01T02:06:30.556Z,18.70
2019-04-01T02:08:59.832Z,18.60
2019-04-01T02:11:28.684Z,18.60
2019-04-01T02:13:57.609Z,18.40
2019-04-01T02:16:26.593Z,18.30
2019-04-01T02:18:55.488Z,18.20
2019-04-01T02:21:25.145Z,18.00
2019-04-01T02:23:54.069Z,17.90
2019-04-01T02:26:23.983Z,17.70
2019-04-01T02:28:52.935Z,17.60
2019-04-01T02:31:21.762Z,17.40
2019-04-01T02:33:50.890Z,17.30
2019-04-01T02:36:19.861Z,17.10
2019-04-01T02:38:48.810Z,16.90
2019-04-01T02:41:17.838Z,16.80
2019-04-01T02:43:46.804Z,16.70
2019-04-01T02:46:15.456Z,16.50
2019-04-01T02:48:44.622Z,16.40
2019-04-01T02:51:13.942Z,16.30
2019-04-01T02:53:43.144Z,16.30
2019-04-01T02:56:12.341Z,16.10
2019-04-01T02:58:41.535Z,16.10
2019-04-01T03:01:10.937Z,15.90
2019-04-01T03:03:40.219Z,15.80
2019-04-01T03:06:09.369Z,15.70
2019-04-01T03:08:37.979Z,15.60
2019-04-01T03:11:10.176Z,15.50
2019-04-01T03:13:37.064Z,15.40
2019-04-01T03:16:05.934Z,15.30
2019-04-01T03:18:34.719Z,15.10
2019-04-01T03:21:03.908Z,15.10
2019-04-01T03:23:33.636Z,14.90
2019-04-01T03:26:02.870Z,14.80
2019-04-01T03:28:32.089Z,14.70
2019-04-01T03:31:00.737Z,14.60
2019-04-01T03:33:30.373Z,14.50
2019-04-01T03:35:59.598Z,14.50
2019-04-01T03:38:28.666Z,14.40
2019-04-01T03:40:57.564Z,14.30
2019-04-01T03:43:26.475Z,14.20
2019-04-01T03:45:56.407Z,14.10
2019-04-01T03:48:26.174Z,14.00
2019-04-01T03:50:55.859Z,14.00
2019-04-01T03:53:24.747Z,13.90
2019-04-01T03:55:54.182Z,13.80
2019-04-01T03:58:23.286Z,13.80
2019-04-01T04:00:52.382Z,13.80
2019-04-01T04:03:21.514Z,13.70
2019-04-01T04:05:50.583Z,13.60
2019-04-01T04:08:19.342Z,13.60
2019-04-01T04:10:48.439Z,13.50
2019-04-01T04:13:17.436Z,13.50
2019-04-01T04:15:47.758Z,13.40
2019-04-01T04:18:16.751Z,13.40
2019-04-01T04:20:45.821Z,13.30
2019-04-01T04:23:15.239Z,13.30
2019-04-01T04:25:45.412Z,13.30
2019-04-01T04:28:14.068Z,13.20
2019-04-01T04:30:43.113Z,13.10
2019-04-01T04:33:12.033Z,13.00
2019-04-01T04:35:41.408Z,13.00
2019-04-01T04:38:10.579Z,12.90
2019-04-01T04:40:41.035Z,12.80
2019-04-01T04:43:09.832Z,12.80
2019-04-01T04:45:38.805Z,12.70
2019-04-01T04:48:07.696Z,12.70
2019-04-01T04:50:36.689Z,12.60
2019-04-01T04:53:05.806Z,12.60
2019-04-01T04:55:35.662Z,12.60
2019-04-01T04:58:04.758Z,12.50
2019-04-01T05:00:34.184Z,12.50
2019-04-01T05:03:03.309Z,12.50
2019-04-01T05:05:32.079Z,12.40
2019-04-01T05:08:00.921Z,12.40
2019-04-01T05:10:29.635Z,12.40
2019-04-01T05:12:59.300Z,12.30
2019-04-01T05:15:27.980Z,12.30
2019-04-01T05:17:56.741Z,12.30
2019-04-01T05:20:26.017Z,12.30
2019-04-01T05:22:55.331Z,12.20
2019-04-01T05:25:25.341Z,12.10
2019-04-01T05:27:56.602Z,12.00
2019-04-01T05:30:25.600Z,12.00
2019-04-01T05:32:56.039Z,11.90
2019-04-01T05:35:25.184Z,12.00
2019-04-01T05:37:55.257Z,11.90
2019-04-01T05:40:23.911Z,11.80
2019-04-01T05:42:53.157Z,11.80
2019-04-01T05:45:23.056Z,11.80
2019-04-01T05:47:53.959Z,11.80
2019-04-01T05:50:23.113Z,11.80
2019-04-01T05:52:52.472Z,11.70
2019-04-01T05:55:21.087Z,11.60
2019-04-01T05:57:49.977Z,11.60
2019-04-01T06:00:20.965Z,11.60
2019-04-01T06:02:50.253Z,11.60
2019-04-01T06:05:19.406Z,11.50
2019-04-01T06:07:48.431Z,11.50
2019-04-01T06:10:18.400Z,11.40
2019-04-01T06:12:47.971Z,11.40
2019-04-01T06:15:17.128Z,11.30
2019-04-01T06:17:46.059Z,11.20
2019-04-01T06:20:15.047Z,11.20
2019-04-01T06:22:44.235Z,11.00
2019-04-01T06:25:13.070Z,10.90
2019-04-01T06:27:42.126Z,10.90
2019-04-01T06:30:11.220Z,10.80
2019-04-01T06:32:40.737Z,10.80
2019-04-01T06:35:10.028Z,10.70
2019-04-01T06:37:38.825Z,10.70
2019-04-01T06:40:08.744Z,10.70
2019-04-01T06:42:37.893Z,10.60
2019-04-01T06:45:07.488Z,10.50
2019-04-01T06:47:36.318Z,10.40
2019-04-01T06:50:06.228Z,10.40
2019-04-01T06:52:35.380Z,10.30
2019-04-01T06:55:04.849Z,10.20
2019-04-01T06:57:34.262Z,10.20
2019-04-01T07:00:03.640Z,10.10
2019-04-01T07:02:32.832Z,10.10
2019-04-01T07:05:01.820Z,10.00
2019-04-01T07:07:30.851Z,9.90
2019-04-01T07:09:59.813Z,9.90
2019-04-01T07:12:28.839Z,9.80
2019-04-01T07:14:58.375Z,9.80
2019-04-01T07:17:27.299Z,9.80
2019-04-01T07:19:56.334Z,9.80
2019-04-01T07:22:26.309Z,9.80
2019-04-01T07:24:56.424Z,9.80
2019-04-01T07:27:26.334Z,9.80
2019-04-01T07:29:57.040Z,9.70
2019-04-01T07:32:26.096Z,9.70
2019-04-01T07:34:56.362Z,9.70
2019-04-01T07:37:25.137Z,9.70
2019-04-01T07:39:54.085Z,9.70
2019-04-01T07:42:23.226Z,9.60
2019-04-01T07:44:52.249Z,9.60
2019-04-01T07:47:21.380Z,9.60
2019-04-01T07:49:50.235Z,9.60
2019-04-01T07:52:19.178Z,9.80
2019-04-01T07:54:48.137Z,9.60
2019-04-01T07:57:17.492Z,9.50
2019-04-01T07:59:46.627Z,9.60
2019-04-01T08:02:15.709Z,9.50
2019-04-01T08:04:45.211Z,9.60
2019-04-01T08:07:14.012Z,9.50
2019-04-01T08:09:42.788Z,9.60
2019-04-01T08:12:11.928Z,9.60
2019-04-01T08:14:40.912Z,9.60
2019-04-01T08:17:10.028Z,9.60
2019-04-01T08:19:39.985Z,9.40
2019-04-01T08:22:09.504Z,9.50
2019-04-01T08:24:38.480Z,9.50
2019-04-01T08:27:07.615Z,9.40
2019-04-01T08:29:36.685Z,9.40
2019-04-01T08:32:05.559Z,9.40
2019-04-01T08:34:34.478Z,9.40
2019-04-01T08:37:03.643Z,9.30
2019-04-01T08:39:32.635Z,9.40
2019-04-01T08:42:02.426Z,9.40
2019-04-01T08:44:31.600Z,9.40
2019-04-01T08:47:00.327Z,9.40
2019-04-01T08:49:29.271Z,9.40
2019-04-01T08:51:58.008Z,9.30
2019-04-01T08:54:27.101Z,9.20
2019-04-01T08:56:56.486Z,9.30
2019-04-01T08:59:25.903Z,9.30
2019-04-01T09:01:55.097Z,9.20
2019-04-01T09:04:24.025Z,9.30
2019-04-01T09:06:52.981Z,9.10
2019-04-01T09:09:23.738Z,9.10
2019-04-01T09:11:54.336Z,9.10
2019-04-01T09:14:24.798Z,9.10
2019-04-01T09:16:54.540Z,9.10
2019-04-01T09:19:23.343Z,9.10
2019-04-01T09:21:52.464Z,9.00
2019-04-01T09:24:22.623Z,9.00
2019-04-01T09:26:51.806Z,9.00
2019-04-01T09:29:20.885Z,8.90
2019-04-01T09:31:50.613Z,8.90
2019-04-01T09:34:19.715Z,8.80
2019-04-01T09:36:49.518Z,8.80
2019-04-01T09:39:18.444Z,9.00
2019-04-01T09:41:48.311Z,8.70
2019-04-01T09:44:17.595Z,8.70
2019-04-01T09:46:48.994Z,8.60
2019-04-01T09:49:17.419Z,8.60
2019-04-01T09:51:48.799Z,8.50
2019-04-01T09:54:17.042Z,8.40
2019-04-01T09:56:45.835Z,8.40
2019-04-01T09:59:14.647Z,8.60
2019-04-01T10:01:43.506Z,8.30
2019-04-01T10:04:12.645Z,8.30
2019-04-01T10:06:41.696Z,8.30
2019-04-01T10:09:10.610Z,8.30
2019-04-01T10:11:40.639Z,8.10
2019-04-01T10:14:10.234Z,8.30
2019-04-01T10:16:39.304Z,8.20
2019-04-01T10:19:08.398Z,8.30
2019-04-01T10:21:37.345Z,8.20
2019-04-01T10:24:06.661Z,8.10
2019-04-01T10:26:35.535Z,8.10
2019-04-01T10:29:04.618Z,8.10
2019-04-01T10:31:33.496Z,8.20
2019-04-01T10:34:02.679Z,8.20
2019-04-01T10:36:31.501Z,8.20
2019-04-01T10:39:00.539Z,8.20
2019-04-01T10:41:29.503Z,8.20
2019-04-01T10:43:59.535Z,8.20
2019-04-01T10:46:28.520Z,8.10
2019-04-01T10:48:57.805Z,8.60
2019-04-01T10:51:26.794Z,8.40
2019-04-01T10:53:55.650Z,8.40
2019-04-01T10:56:24.898Z,8.50
2019-04-01T10:58:53.566Z,8.60
2019-04-01T11:01:22.468Z,8.50
2019-04-01T11:03:52.330Z,8.60
2019-04-01T11:06:21.345Z,8.60
2019-04-01T11:08:50.564Z,8.70
2019-04-01T11:11:19.589Z,8.70
2019-04-01T11:13:51.827Z,8.50
2019-04-01T11:16:19.646Z,8.60
2019-04-01T11:18:48.508Z,8.50
2019-04-01T11:21:17.504Z,8.90
2019-04-01T11:23:46.140Z,8.70
2019-04-01T11:26:15.093Z,9.00
2019-04-01T11:28:43.893Z,8.70
2019-04-01T11:31:12.971Z,8.80
2019-04-01T11:33:42.029Z,8.90
2019-04-01T11:36:11.080Z,9.00
2019-04-01T11:38:40.397Z,8.80
2019-04-01T11:41:09.586Z,8.80
2019-04-01T11:43:39.077Z,9.00
2019-04-01T11:46:12.330Z,8.90
2019-04-01T11:48:39.538Z,8.90
2019-04-01T11:51:08.308Z,8.90
2019-04-01T11:53:37.425Z,8.90
2019-04-01T11:56:06.568Z,8.90
2019-04-01T11:58:35.462Z,8.90
2019-04-01T12:01:04.664Z,8.90
2019-04-01T12:03:33.863Z,9.00
2019-04-01T12:06:02.844Z,8.90
2019-04-01T12:08:31.836Z,8.80
2019-04-01T12:11:01.067Z,9.00
2019-04-01T12:13:30.045Z,8.80
2019-04-01T12:16:00.467Z,8.90
2019-04-01T12:18:29.744Z,8.80
2019-04-01T12:20:58.946Z,8.80
2019-04-01T12:23:27.953Z,8.80
2019-04-01T12:25:56.929Z,8.90
2019-04-01T12:28:25.882Z,8.90
2019-04-01T12:30:56.328Z,9.00
2019-04-01T12:33:26.316Z,8.90
2019-04-01T12:35:55.524Z,9.00
2019-04-01T12:38:25.479Z,8.80
2019-04-01T12:40:54.758Z,8.70
2019-04-01T12:43:23.930Z,8.90
2019-04-01T12:45:53.166Z,8.70
2019-04-01T12:48:25.421Z,8.70
2019-04-01T12:50:56.676Z,8.70
2019-04-01T12:53:27.323Z,8.90
2019-04-01T12:55:56.093Z,8.60
2019-04-01T12:58:25.302Z,8.60
2019-04-01T13:01:00.762Z,8.60
2019-04-01T13:03:27.698Z,8.60
2019-04-01T13:05:57.816Z,8.60
2019-04-01T13:08:27.906Z,8.60
2019-04-01T13:10:57.186Z,8.70
2019-04-01T13:13:37.232Z,8.80
2019-04-01T13:16:09.018Z,8.50
2019-04-01T13:18:38.266Z,8.60
2019-04-01T13:21:07.598Z,8.90
2019-04-01T13:23:36.848Z,8.60
2019-04-01T13:26:06.123Z,8.40
2019-04-01T13:28:35.373Z,8.50
2019-04-01T13:31:04.491Z,8.70
2019-04-01T13:33:34.551Z,8.50
2019-04-01T13:36:03.526Z,8.50
2019-04-01T13:38:33.441Z,8.60
2019-04-01T13:41:04.230Z,8.60
2019-04-01T13:43:33.290Z,8.90
2019-04-01T13:46:02.342Z,8.90
2019-04-01T13:48:32.792Z,8.70
2019-04-01T13:51:04.845Z,8.80
2019-04-01T13:53:35.790Z,9.00
2019-04-01T13:56:09.894Z,8.90
2019-04-01T13:58:37.464Z,9.00
2019-04-01T14:01:06.468Z,8.80
2019-04-01T14:03:38.102Z,9.00
2019-04-01T14:06:09.860Z,8.90
2019-04-01T14:08:39.372Z,9.00
2019-04-01T14:11:08.551Z,8.90
2019-04-01T14:13:38.064Z,8.90
2019-04-01T14:16:09.147Z,8.90
2019-04-01T14:18:38.175Z,8.90
2019-04-01T14:21:16.361Z,9.00
2019-04-01T14:23:42.485Z,9.00
2019-04-01T14:26:15.110Z,9.20
2019-04-01T14:28:45.849Z,9.10
2019-04-01T14:31:19.226Z,9.10
2019-04-01T14:33:48.573Z,9.10
2019-04-01T14:36:17.749Z,9.20
2019-04-01T14:38:47.624Z,9.30
2019-04-01T14:41:30.168Z,9.30
2019-04-01T14:44:01.916Z,9.30
2019-04-01T14:46:31.330Z,9.40
2019-04-01T14:49:02.749Z,9.50
2019-04-01T14:51:31.614Z,9.50
2019-04-01T14:54:06.367Z,9.60
2019-04-01T14:56:35.638Z,9.70
2019-04-01T14:59:04.675Z,9.70
2019-04-01T15:01:33.968Z,9.80
2019-04-01T15:04:03.272Z,9.90
2019-04-01T15:06:33.569Z,10.00
2019-04-01T15:09:02.594Z,10.10
2019-04-01T15:11:32.612Z,10.20
2019-04-01T15:14:01.618Z,10.40
2019-04-01T15:16:30.634Z,10.60
2019-04-01T15:18:59.366Z,10.70
2019-04-01T15:21:28.228Z,11.00
2019-04-01T15:23:57.924Z,11.20
2019-04-01T15:26:27.081Z,11.50
2019-04-01T15:28:55.860Z,11.70
2019-04-01T15:31:25.386Z,11.90
2019-04-01T15:33:54.769Z,12.20
2019-04-01T15:36:23.438Z,12.40
2019-04-01T15:38:52.348Z,12.40
2019-04-01T15:41:21.466Z,12.60
2019-04-01T15:43:51.679Z,12.70
2019-04-01T15:46:20.542Z,12.70
2019-04-01T15:48:49.750Z,12.80
2019-04-01T15:51:18.428Z,12.80
2019-04-01T15:53:47.211Z,12.90
2019-04-01T15:56:16.200Z,13.00
2019-04-01T15:58:45.134Z,13.00
2019-04-01T16:01:14.289Z,13.00
2019-04-01T16:03:43.265Z,13.20
2019-04-01T16:06:12.564Z,13.40
2019-04-01T16:08:41.531Z,13.50
2019-04-01T16:11:11.493Z,13.60
2019-04-01T16:13:42.292Z,13.80
2019-04-01T16:16:14.397Z,14.00
2019-04-01T16:18:42.939Z,14.20
2019-04-01T16:21:11.873Z,14.30
2019-04-01T16:23:40.854Z,14.50
2019-04-01T16:26:10.152Z,14.70
2019-04-01T16:28:39.100Z,15.10
2019-04-01T16:31:07.939Z,15.40
2019-04-01T16:33:37.298Z,15.70
2019-04-01T16:36:06.161Z,16.10
2019-04-01T16:38:35.213Z,16.40
2019-04-01T16:41:04.238Z,16.40
2019-04-01T16:43:33.555Z,16.40
2019-04-01T16:46:03.342Z,16.50
2019-04-01T16:48:32.372Z,16.80
2019-04-01T16:51:01.300Z,17.10
2019-04-01T16:53:31.414Z,17.30
2019-04-01T16:56:00.851Z,17.30
2019-04-01T16:58:29.498Z,17.40
2019-04-01T17:00:58.429Z,17.50
2019-04-01T17:03:27.481Z,17.60
2019-04-01T17:05:56.621Z,17.80
2019-04-01T17:08:25.599Z,17.90
2019-04-01T17:10:54.613Z,18.30
2019-04-01T17:13:23.562Z,18.60
2019-04-01T17:15:52.832Z,19.00
2019-04-01T17:18:21.888Z,19.00
2019-04-01T17:20:50.955Z,19.10
2019-04-01T17:23:20.144Z,19.30
2019-04-01T17:25:49.413Z,19.20
2019-04-01T17:28:18.587Z,19.10
2019-04-01T17:30:48.207Z,19.20
2019-04-01T17:33:17.812Z,19.60
2019-04-01T17:35:46.835Z,20.00
2019-04-01T17:38:16.447Z,20.10
2019-04-01T17:40:45.770Z,20.40
2019-04-01T17:43:16.315Z,20.00
2019-04-01T17:45:46.165Z,19.90
2019-04-01T17:48:15.592Z,19.70
2019-04-01T17:50:44.741Z,20.20
2019-04-01T17:53:14.070Z,20.70
2019-04-01T17:55:45.547Z,21.00
2019-04-01T17:58:15.332Z,21.40
2019-04-01T18:00:49.097Z,21.40
2019-04-01T18:03:18.129Z,21.30
2019-04-01T18:05:47.115Z,21.20
2019-04-01T18:08:16.336Z,21.60
2019-04-01T18:10:47.216Z,22.10
2019-04-01T18:13:15.549Z,21.60
2019-04-01T18:15:45.218Z,21.70
2019-04-01T18:18:26.164Z,22.00
2019-04-01T18:20:44.898Z,21.70
2019-04-01T18:23:13.896Z,21.90
2019-04-01T18:25:42.555Z,22.10
2019-04-01T18:28:13.062Z,22.30
2019-04-01T18:30:42.491Z,22.00
2019-04-01T18:33:11.400Z,22.10
2019-04-01T18:35:44.532Z,22.10
2019-04-01T18:38:11.718Z,22.00
2019-04-01T18:40:40.439Z,21.90
2019-04-01T18:43:09.196Z,21.80
2019-04-01T18:45:38.283Z,21.70
2019-04-01T18:48:07.316Z,21.70
2019-04-01T18:50:36.712Z,21.50
2019-04-01T18:53:07.173Z,21.40
2019-04-01T18:55:35.961Z,21.40
2019-04-01T18:58:05.168Z,21.50
2019-04-01T19:00:34.194Z,21.40
2019-04-01T19:03:03.175Z,21.50
2019-04-01T19:05:32.178Z,21.40
2019-04-01T19:08:01.292Z,21.40
2019-04-01T19:10:30.438Z,21.20
2019-04-01T19:13:05.660Z,21.10
2019-04-01T19:15:31.203Z,21.00
2019-04-01T19:18:00.914Z,20.90
2019-04-01T19:20:30.519Z,20.90
2019-04-01T19:22:59.629Z,20.80
2019-04-01T19:25:28.710Z,20.70
2019-04-01T19:27:57.800Z,20.40
2019-04-01T19:30:26.863Z,20.40
2019-04-01T19:32:55.888Z,20.30
2019-04-01T19:35:24.621Z,20.20
2019-04-01T19:37:54.066Z,20.00
2019-04-01T19:40:23.096Z,19.80
2019-04-01T19:42:52.378Z,19.70
2019-04-01T19:45:21.270Z,19.70
2019-04-01T19:47:49.947Z,19.80
2019-04-01T19:50:19.662Z,19.40
2019-04-01T19:52:48.748Z,19.40
2019-04-01T19:55:19.275Z,19.50
2019-04-01T19:57:48.423Z,19.60
2019-04-01T20:00:27.663Z,19.70
2019-04-01T20:02:48.648Z,19.80
2019-04-01T20:05:17.703Z,19.80
2019-04-01T20:07:47.497Z,20.00
2019-04-01T20:10:17.291Z,20.00
2019-04-01T20:12:46.679Z,20.00
2019-04-01T20:15:15.846Z,20.00
2019-04-01T20:17:45.019Z,20.00
2019-04-01T20:20:14.685Z,20.20
2019-04-01T20:22:44.748Z,20.00
2019-04-01T20:25:13.948Z,20.30
2019-04-01T20:27:43.230Z,20.50
2019-04-01T20:30:13.674Z,20.60
2019-04-01T20:32:42.515Z,20.90
2019-04-01T20:35:22.656Z,20.90
2019-04-01T20:37:42.444Z,21.10
2019-04-01T20:40:11.870Z,21.10
2019-04-01T20:42:40.816Z,21.30
2019-04-01T20:45:11.108Z,21.40
2019-04-01T20:47:40.440Z,21.30
2019-04-01T20:50:14.574Z,21.30
2019-04-01T20:52:43.401Z,21.40
2019-04-01T20:55:13.437Z,21.60
2019-04-01T20:57:42.561Z,21.60
2019-04-01T21:00:11.791Z,21.70
2019-04-01T21:02:40.981Z,21.90
2019-04-01T21:05:10.268Z,21.80
2019-04-01T21:07:39.337Z,21.80
2019-04-01T21:10:08.654Z,22.10
2019-04-01T21:12:37.818Z,22.20
2019-04-01T21:15:08.431Z,22.20
2019-04-01T21:17:37.276Z,22.40
2019-04-01T21:20:09.175Z,22.60
2019-04-01T21:22:39.273Z,22.60
2019-04-01T21:25:08.474Z,22.70
2019-04-01T21:27:37.657Z,22.80
2019-04-01T21:30:10.401Z,22.90
2019-04-01T21:32:39.495Z,22.80
2019-04-01T21:35:09.208Z,22.80
2019-04-01T21:37:38.634Z,22.70
2019-04-01T21:40:07.823Z,22.40
2019-04-01T21:42:36.586Z,21.90
2019-04-01T21:45:08.724Z,22.00
2019-04-01T21:47:38.659Z,22.20
2019-04-01T21:50:08.141Z,22.20
2019-04-01T21:52:37.068Z,22.40
2019-04-01T21:55:08.213Z,22.40
2019-04-01T21:57:43.252Z,22.40
2019-04-01T22:00:17.997Z,22.40
2019-04-01T22:02:46.928Z,22.50
2019-04-01T22:05:16.224Z,22.60
2019-04-01T22:07:45.274Z,22.80
2019-04-01T22:10:14.623Z,22.70
2019-04-01T22:12:43.718Z,22.70
2019-04-01T22:15:12.627Z,22.70
2019-04-01T22:17:41.641Z,22.50
2019-04-01T22:20:11.303Z,22.40
2019-04-01T22:22:40.383Z,22.60
2019-04-01T22:25:09.656Z,22.70
2019-04-01T22:27:38.690Z,22.80
2019-04-01T22:30:08.285Z,22.90
2019-04-01T22:32:37.152Z,22.90
2019-04-01T22:35:07.957Z,22.70
2019-04-01T22:37:37.785Z,22.70
2019-04-01T22:40:07.937Z,22.70
2019-04-01T22:42:36.895Z,22.40
2019-04-01T22:45:07.803Z,22.20
2019-04-01T22:47:36.795Z,21.80
2019-04-01T22:50:10.298Z,21.70
2019-04-01T22:52:42.069Z,21.70
2019-04-01T22:55:10.818Z,21.70
2019-04-01T22:57:39.809Z,21.80
2019-04-01T23:00:08.864Z,21.50
2019-04-01T23:02:37.820Z,21.40
2019-04-01T23:05:08.349Z,21.20
2019-04-01T23:07:37.721Z,21.20
2019-04-01T23:10:09.685Z,21.20
2019-04-01T23:12:38.488Z,20.90
2019-04-01T23:15:08.341Z,20.50
2019-04-01T23:17:38.437Z,20.40
2019-04-01T23:20:07.674Z,20.30
2019-04-01T23:22:36.714Z,20.30
2019-04-01T23:25:05.959Z,20.30
2019-04-01T23:27:35.188Z,20.20
2019-04-01T23:30:06.969Z,20.10
2019-04-01T23:32:36.034Z,20.10
2019-04-01T23:35:06.533Z,20.20
2019-04-01T23:37:38.180Z,20.00
2019-04-01T23:40:07.438Z,19.70
2019-04-01T23:42:37.906Z,19.70
2019-04-01T23:45:07.652Z,19.50
2019-04-01T23:47:36.749Z,19.50
2019-04-01T23:50:09.816Z,19.50
2019-04-01T23:52:39.137Z,19.40
2019-04-01T23:55:08.178Z,19.30
2019-04-01T23:57:37.219Z,19.40
